createdAt,value
2019-01-27T00:00:32.222Z,98648.24
2019-01-27T00:03:01.422Z,98651.78
2019-01-27T00:05:30.248Z,98647.47
2019-01-27T00:07:58.969Z,98654.44
2019-01-27T00:10:27.816Z,98657.76
2019-01-27T00:12:56.557Z,98660.89
2019-01-27T00:15:25.482Z,98672.98
2019-01-27T00:17:54.269Z,98681.02
2019-01-27T00:20:24.392Z,98678.16
2019-01-27T00:22:53.114Z,98670.72
2019-01-27T00:25:21.879Z,98679.52
2019-01-27T00:27:50.599Z,98684.19
2019-01-27T00:30:23.811Z,98693.70
2019-01-27T00:32:52.583Z,98700.66
2019-01-27T00:35:21.313Z,98702.25
2019-01-27T00:37:50.025Z,98704.56
2019-01-27T00:40:19.530Z,98702.00
2019-01-27T00:42:48.256Z,98706.92
2019-01-27T00:45:18.982Z,98699.47
2019-01-27T00:47:47.863Z,98705.41
2019-01-27T00:50:22.655Z,98709.52
2019-01-27T00:52:51.377Z,98706.66
2019-01-27T00:55:22.305Z,98703.84
2019-01-27T00:57:51.132Z,98705.41
2019-01-27T01:00:29.752Z,98705.66
2019-01-27T01:02:58.479Z,98709.52
2019-01-27T01:05:27.194Z,98707.45
2019-01-27T01:07:56.056Z,98708.50
2019-01-27T01:10:25.181Z,98717.26
2019-01-27T01:12:54.002Z,98707.95
2019-01-27T01:15:23.375Z,98706.44
2019-01-27T01:17:52.094Z,98715.73
2019-01-27T01:20:22.221Z,98716.75
2019-01-27T01:22:52.206Z,98714.95
2019-01-27T01:25:23.382Z,98711.59
2019-01-27T01:27:52.800Z,98719.60
2019-01-27T01:30:24.726Z,98718.31
2019-01-27T01:32:53.443Z,98721.42
2019-01-27T01:35:22.268Z,98722.44
2019-01-27T01:37:51.119Z,98712.39
2019-01-27T01:40:20.438Z,98708.52
2019-01-27T01:42:49.168Z,98719.34
2019-01-27T01:45:29.452Z,98722.42
2019-01-27T01:47:58.269Z,98720.88
2019-01-27T01:50:26.992Z,98718.05
2019-01-27T01:52:55.988Z,98715.47
2019-01-27T01:55:24.910Z,98715.47
2019-01-27T01:57:53.628Z,98719.62
2019-01-27T02:00:28.269Z,98724.52
2019-01-27T02:02:57.086Z,98725.52
2019-01-27T02:05:25.798Z,98716.51
2019-01-27T02:07:54.930Z,98711.36
2019-01-27T02:10:24.165Z,98725.28
2019-01-27T02:12:53.584Z,98723.45
2019-01-27T02:15:31.327Z,98720.89
2019-01-27T02:18:00.040Z,98729.13
2019-01-27T02:20:28.807Z,98728.31
2019-01-27T02:22:57.723Z,98728.83
2019-01-27T02:25:26.443Z,98728.83
2019-01-27T02:27:55.163Z,98729.60
2019-01-27T02:30:24.366Z,98731.62
2019-01-27T02:32:53.093Z,98731.62
2019-01-27T02:35:21.816Z,98736.25
2019-01-27T02:37:50.947Z,98731.84
2019-01-27T02:40:19.869Z,98734.89
2019-01-27T02:42:48.600Z,98725.11
2019-01-27T02:45:19.156Z,98734.16
2019-01-27T02:47:47.886Z,98738.27
2019-01-27T02:50:16.598Z,98735.70
2019-01-27T02:52:45.473Z,98745.21
2019-01-27T02:55:14.293Z,98760.91
2019-01-27T02:57:43.023Z,98741.53
2019-01-27T03:00:20.552Z,98748.28
2019-01-27T03:02:49.271Z,98747.47
2019-01-27T03:05:25.281Z,98745.88
2019-01-27T03:07:54.431Z,98744.59
2019-01-27T03:10:23.201Z,98749.49
2019-01-27T03:12:51.921Z,98747.66
2019-01-27T03:15:20.884Z,98747.66
2019-01-27T03:17:49.604Z,98763.70
2019-01-27T03:20:18.333Z,98770.64
2019-01-27T03:22:47.121Z,98760.20
2019-01-27T03:25:17.647Z,98762.55
2019-01-27T03:27:46.374Z,98762.80
2019-01-27T03:30:20.981Z,98768.72
2019-01-27T03:32:49.712Z,98769.40
2019-01-27T03:35:19.034Z,98764.62
2019-01-27T03:37:48.164Z,98766.06
2019-01-27T03:40:20.868Z,98770.79
2019-01-27T03:42:49.687Z,98783.39
2019-01-27T03:45:19.797Z,98774.13
2019-01-27T03:47:48.615Z,98777.30
2019-01-27T03:50:21.591Z,98781.39
2019-01-27T03:52:50.669Z,98777.07
2019-01-27T03:55:21.690Z,98777.07
2019-01-27T03:57:50.416Z,98780.38
2019-01-27T04:00:21.840Z,98777.56
2019-01-27T04:02:50.561Z,98777.81
2019-01-27T04:05:20.085Z,98773.05
2019-01-27T04:07:48.972Z,98773.75
2019-01-27T04:10:25.993Z,98770.09
2019-01-27T04:12:55.008Z,98774.86
2019-01-27T04:15:23.735Z,98780.22
2019-01-27T04:17:52.556Z,98784.12
2019-01-27T04:20:22.513Z,98787.42
2019-01-27T04:22:51.326Z,98784.33
2019-01-27T04:25:20.447Z,98788.47
2019-01-27T04:27:49.287Z,98791.34
2019-01-27T04:30:26.674Z,98796.27
2019-01-27T04:32:55.553Z,98798.52
2019-01-27T04:35:24.264Z,98800.88
2019-01-27T04:37:52.990Z,98802.72
2019-01-27T04:40:23.568Z,98806.07
2019-01-27T04:42:52.282Z,98807.55
2019-01-27T04:45:25.718Z,98809.36
2019-01-27T04:47:54.593Z,98801.41
2019-01-27T04:50:23.314Z,98801.62
2019-01-27T04:52:52.065Z,98813.94
2019-01-27T04:55:21.901Z,98810.88
2019-01-27T04:57:50.618Z,98809.54
2019-01-27T05:00:28.453Z,98811.87
2019-01-27T05:03:14.928Z,98819.87
2019-01-27T05:05:43.821Z,98816.73
2019-01-27T05:08:12.594Z,98825.98
2019-01-27T05:10:41.435Z,98832.66
2019-01-27T05:13:10.348Z,98840.94
2019-01-27T05:15:39.069Z,98847.97
2019-01-27T05:18:07.797Z,98847.97
2019-01-27T05:20:36.646Z,98848.57
2019-01-27T05:23:05.359Z,98857.60
2019-01-27T05:25:34.084Z,98863.80
2019-01-27T05:28:04.076Z,98860.78
2019-01-27T05:30:32.798Z,98863.56
2019-01-27T05:33:01.516Z,98862.34
2019-01-27T05:35:30.400Z,98859.30
2019-01-27T05:37:59.117Z,98861.14
2019-01-27T05:40:27.845Z,98870.68
2019-01-27T05:42:56.695Z,98874.33
2019-01-27T05:45:25.538Z,98867.88
2019-01-27T05:47:54.240Z,98870.23
2019-01-27T05:50:23.126Z,98868.42
2019-01-27T05:52:51.848Z,98865.36
2019-01-27T05:55:23.620Z,98865.34
2019-01-27T05:57:52.484Z,98872.33
2019-01-27T06:00:33.895Z,98870.76
2019-01-27T06:03:04.259Z,98879.55
2019-01-27T06:05:32.970Z,98879.80
2019-01-27T06:08:01.691Z,98894.24
2019-01-27T06:10:30.574Z,98890.91
2019-01-27T06:12:59.305Z,98894.73
2019-01-27T06:15:28.132Z,98887.29
2019-01-27T06:17:57.017Z,98893.21
2019-01-27T06:20:25.737Z,98893.48
2019-01-27T06:22:54.455Z,98894.52
2019-01-27T06:25:26.033Z,98891.70
2019-01-27T06:27:53.693Z,98897.11
2019-01-27T06:30:24.609Z,98895.31
2019-01-27T06:32:56.407Z,98895.02
2019-01-27T06:35:25.127Z,98896.83
2019-01-27T06:37:53.848Z,98907.45
2019-01-27T06:40:22.849Z,98905.39
2019-01-27T06:42:51.553Z,98905.63
2019-01-27T06:45:20.267Z,98909.00
2019-01-27T06:47:49.046Z,98909.24
2019-01-27T06:50:20.543Z,98905.13
2019-01-27T06:52:49.272Z,98912.09
2019-01-27T06:55:20.061Z,98916.99
2019-01-27T06:57:48.788Z,98909.00
2019-01-27T07:00:30.244Z,98917.00
2019-01-27T07:03:09.354Z,98914.94
2019-01-27T07:05:56.038Z,98913.91
2019-01-27T07:08:26.332Z,98915.44
2019-01-27T07:11:02.752Z,98913.63
2019-01-27T07:13:39.025Z,98910.54
2019-01-27T07:16:09.547Z,98904.59
2019-01-27T07:18:42.706Z,98907.45
2019-01-27T07:21:15.793Z,98908.73
2019-01-27T07:24:01.862Z,98899.70
2019-01-27T07:26:35.282Z,98895.05
2019-01-27T07:29:14.623Z,98896.33
2019-01-27T07:31:47.714Z,98906.66
2019-01-27T07:34:27.024Z,98911.52
2019-01-27T07:37:09.722Z,98916.45
2019-01-27T07:39:40.019Z,98908.70
2019-01-27T07:42:19.596Z,98917.45
2019-01-27T07:44:49.885Z,98908.63
2019-01-27T07:47:20.180Z,98911.77
2019-01-27T07:49:53.416Z,98915.36
2019-01-27T07:52:38.953Z,98915.66
2019-01-27T07:55:24.530Z,98915.39
2019-01-27T07:57:54.824Z,98911.77
2019-01-27T08:00:34.864Z,98910.41
2019-01-27T08:03:11.775Z,98898.49
2019-01-27T08:05:40.405Z,98903.92
2019-01-27T08:08:13.290Z,98895.80
2019-01-27T08:10:45.180Z,98892.48
2019-01-27T08:13:18.444Z,98906.20
2019-01-27T08:15:58.237Z,98901.11
2019-01-27T08:18:37.679Z,98900.28
2019-01-27T08:21:08.135Z,98904.48
2019-01-27T08:23:45.314Z,98902.47
2019-01-27T08:26:21.470Z,98907.98
2019-01-27T08:29:08.243Z,98911.67
2019-01-27T08:31:47.551Z,98914.57
2019-01-27T08:34:30.123Z,98914.55
2019-01-27T08:37:12.641Z,98914.39
2019-01-27T08:39:43.110Z,98914.49
2019-01-27T08:42:19.453Z,98922.97
2019-01-27T08:44:52.455Z,98921.50
2019-01-27T08:47:21.182Z,98923.25
2019-01-27T08:49:51.915Z,98927.23
2019-01-27T08:52:20.636Z,98925.59
2019-01-27T08:54:49.359Z,98930.00
2019-01-27T08:57:18.143Z,98926.52
2019-01-27T08:59:46.864Z,98934.30
2019-01-27T09:02:33.335Z,98942.73
2019-01-27T09:05:03.628Z,98946.47
2019-01-27T09:07:36.682Z,98944.84
2019-01-27T09:10:12.395Z,98939.84
2019-01-27T09:12:54.599Z,98949.05
2019-01-27T09:15:43.323Z,98941.25
2019-01-27T09:18:47.959Z,98942.61
2019-01-27T09:21:12.742Z,98943.05
2019-01-27T09:23:43.033Z,98936.85
2019-01-27T09:26:13.324Z,98938.16
2019-01-27T09:28:46.653Z,98941.80
2019-01-27T09:31:22.948Z,98942.34
2019-01-27T09:33:59.591Z,98945.44
2019-01-27T09:36:29.708Z,98946.01
2019-01-27T09:39:16.489Z,98944.70
2019-01-27T09:41:46.781Z,98944.22
2019-01-27T09:44:35.353Z,98941.59
2019-01-27T09:47:20.820Z,98949.17
2019-01-27T09:49:59.908Z,98945.31
2019-01-27T09:52:30.200Z,98943.82
2019-01-27T09:55:12.912Z,98937.92
2019-01-27T09:57:45.926Z,98938.52
2019-01-27T10:00:19.254Z,98940.81
2019-01-27T10:02:58.486Z,98940.15
2019-01-27T10:05:28.851Z,98940.14
2019-01-27T10:08:14.372Z,98939.83
2019-01-27T10:11:01.384Z,98935.42
2019-01-27T10:13:34.494Z,98924.03
2019-01-27T10:16:07.745Z,98922.84
2019-01-27T10:18:38.037Z,98923.68
2019-01-27T10:21:08.386Z,98921.14
2019-01-27T10:23:38.785Z,98917.91
2019-01-27T10:26:09.071Z,98927.11
2019-01-27T10:28:54.425Z,98923.03
2019-01-27T10:31:30.832Z,98923.08
2019-01-27T10:34:16.393Z,98920.94
2019-01-27T10:36:46.683Z,98920.75
2019-01-27T10:39:26.411Z,98918.77
2019-01-27T10:42:02.467Z,98911.46
2019-01-27T10:44:32.796Z,98912.18
2019-01-27T10:47:09.343Z,98919.66
2019-01-27T10:49:42.535Z,98912.47
2019-01-27T10:52:12.880Z,98913.36
2019-01-27T10:54:43.200Z,98918.03
2019-01-27T10:57:30.269Z,98916.14
2019-01-27T11:00:06.574Z,98914.83
2019-01-27T11:02:37.975Z,98909.66
2019-01-27T11:05:16.893Z,98909.16
2019-01-27T11:07:49.964Z,98908.00
2019-01-27T11:10:20.271Z,98909.72
2019-01-27T11:12:50.591Z,98905.84
2019-01-27T11:15:37.554Z,98907.69
2019-01-27T11:18:17.034Z,98906.31
2019-01-27T11:20:53.497Z,98910.57
2019-01-27T11:23:29.552Z,98912.22
2019-01-27T11:26:18.315Z,98916.05
2019-01-27T11:28:51.349Z,98914.89
2019-01-27T11:31:38.190Z,98908.41
2019-01-27T11:34:11.484Z,98904.05
2019-01-27T11:36:44.753Z,98896.98
2019-01-27T11:39:18.037Z,98894.53
2019-01-27T11:41:48.324Z,98890.64
2019-01-27T11:44:21.814Z,98888.70
2019-01-27T11:47:08.317Z,98889.31
2019-01-27T11:49:38.656Z,98887.61
2019-01-27T11:52:15.470Z,98884.50
2019-01-27T11:54:40.637Z,98892.16
2019-01-27T11:57:09.445Z,98893.05
2019-01-27T11:59:38.173Z,98890.02
2019-01-27T12:02:06.992Z,98893.47
2019-01-27T12:04:35.766Z,98888.91
2019-01-27T12:07:04.583Z,98888.87
2019-01-27T12:09:33.310Z,98892.86
2019-01-27T12:12:02.520Z,98900.72
2019-01-27T12:14:31.254Z,98896.39
2019-01-27T12:16:59.977Z,98889.90
2019-01-27T12:19:28.861Z,98889.66
2019-01-27T12:21:57.585Z,98890.79
2019-01-27T12:24:26.317Z,98883.88
2019-01-27T12:26:56.934Z,98888.49
2019-01-27T12:29:25.679Z,98880.72
2019-01-27T12:31:54.376Z,98876.03
2019-01-27T12:34:23.153Z,98876.19
2019-01-27T12:36:51.878Z,98876.16
2019-01-27T12:39:20.613Z,98879.05
2019-01-27T12:41:50.627Z,98884.05
2019-01-27T12:44:19.379Z,98888.53
2019-01-27T12:46:48.107Z,98889.19
2019-01-27T12:49:16.879Z,98889.73
2019-01-27T12:51:45.605Z,98888.98
2019-01-27T12:54:14.337Z,98895.45
2019-01-27T12:56:43.173Z,98891.63
2019-01-27T12:59:11.898Z,98896.49
2019-01-27T13:01:40.626Z,98899.78
2019-01-27T13:04:09.817Z,98896.16
2019-01-27T13:06:38.548Z,98894.44
2019-01-27T13:09:08.176Z,98892.72
2019-01-27T13:11:36.977Z,98892.01
2019-01-27T13:14:05.803Z,98889.91
2019-01-27T13:16:34.541Z,98885.69
2019-01-27T13:19:03.319Z,98884.55
2019-01-27T13:21:33.460Z,98886.61
2019-01-27T13:24:02.179Z,98882.89
2019-01-27T13:26:31.047Z,98880.19
2019-01-27T13:28:59.775Z,98881.86
2019-01-27T13:31:28.507Z,98880.73
2019-01-27T13:33:57.385Z,98883.13
2019-01-27T13:36:26.177Z,98879.77
2019-01-27T13:38:54.916Z,98885.98
2019-01-27T13:41:23.710Z,98881.69
2019-01-27T13:43:52.455Z,98873.30
2019-01-27T13:46:21.179Z,98878.83
2019-01-27T13:48:49.933Z,98877.97
2019-01-27T13:51:18.644Z,98874.56
2019-01-27T13:53:47.380Z,98876.69
2019-01-27T13:56:16.521Z,98870.92
2019-01-27T13:58:45.567Z,98878.00
2019-01-27T14:01:14.284Z,98877.88
2019-01-27T14:03:43.075Z,98876.36
2019-01-27T14:06:11.814Z,98873.06
2019-01-27T14:08:40.544Z,98870.41
2019-01-27T14:11:09.452Z,98874.25
2019-01-27T14:13:38.186Z,98876.36
2019-01-27T14:16:06.915Z,98873.66
2019-01-27T14:21:50.836Z,98870.47
2019-01-27T14:24:19.553Z,98874.91
2019-01-27T14:26:48.413Z,98879.05
2019-01-27T14:29:17.136Z,98868.04
2019-01-27T14:31:45.862Z,98869.69
2019-01-27T14:34:14.744Z,98864.47
2019-01-27T14:36:43.478Z,98867.83
2019-01-27T14:39:12.214Z,98865.58
2019-01-27T14:41:41.086Z,98862.14
2019-01-27T14:44:09.821Z,98856.13
2019-01-27T14:46:38.557Z,98860.63
2019-01-27T14:49:07.315Z,98863.20
2019-01-27T14:51:36.041Z,98859.83
2019-01-27T14:54:05.260Z,98861.27
2019-01-27T14:56:34.058Z,98865.29
2019-01-27T14:59:02.807Z,98863.53
2019-01-27T15:01:31.530Z,98861.66
2019-01-27T15:04:00.426Z,98864.51
2019-01-27T15:06:29.128Z,98868.47
2019-01-27T15:08:57.854Z,98868.84
2019-01-27T15:11:26.635Z,98864.37
2019-01-27T15:13:55.358Z,98866.30
2019-01-27T15:16:27.197Z,98868.50
2019-01-27T15:18:56.068Z,98865.77
2019-01-27T15:21:24.788Z,98873.80
2019-01-27T15:23:53.515Z,98882.03
2019-01-27T15:26:22.315Z,98881.94
2019-01-27T15:28:51.139Z,98883.17
2019-01-27T15:31:19.915Z,98880.33
2019-01-27T15:33:48.684Z,98884.51
2019-01-27T15:36:17.406Z,98882.77
2019-01-27T15:38:46.163Z,98888.70
2019-01-27T15:41:15.068Z,98889.59
2019-01-27T15:43:48.560Z,98892.73
2019-01-27T15:46:14.288Z,98897.20
2019-01-27T15:48:43.160Z,98898.33
2019-01-27T15:51:11.886Z,98903.27
2019-01-27T15:53:40.612Z,98907.43
2019-01-27T15:56:10.080Z,98908.56
2019-01-27T15:58:38.975Z,98910.37
2019-01-27T16:01:07.705Z,98911.46
2019-01-27T16:03:36.830Z,98915.62
2019-01-27T16:06:06.158Z,98908.99
2019-01-27T16:08:34.935Z,98910.38
2019-01-27T16:11:03.829Z,98916.36
2019-01-27T16:13:32.569Z,98917.31
2019-01-27T16:16:01.302Z,98912.73
2019-01-27T16:18:30.072Z,98918.56
2019-01-27T16:20:58.801Z,98922.07
2019-01-27T16:23:31.843Z,98919.03
2019-01-27T16:26:02.203Z,98915.39
2019-01-27T16:28:30.920Z,98918.59
2019-01-27T16:31:01.267Z,98921.23
2019-01-27T16:33:40.536Z,98924.14
2019-01-27T16:36:09.261Z,98922.59
2019-01-27T16:38:37.990Z,98928.00
2019-01-27T16:41:06.887Z,98929.88
2019-01-27T16:43:35.610Z,98929.11
2019-01-27T16:46:04.434Z,98934.40
2019-01-27T16:48:33.306Z,98931.58
2019-01-27T16:51:02.171Z,98933.72
2019-01-27T16:53:30.907Z,98937.12
2019-01-27T16:55:59.719Z,98940.21
2019-01-27T16:58:28.437Z,98940.98
2019-01-27T17:00:57.160Z,98946.61
2019-01-27T17:03:25.966Z,98951.55
2019-01-27T17:05:54.795Z,98954.43
2019-01-27T17:08:23.521Z,98954.27
2019-01-27T17:10:52.487Z,98960.56
2019-01-27T17:13:21.204Z,98962.23
2019-01-27T17:15:49.927Z,98961.81
2019-01-27T17:18:18.797Z,98958.44
2019-01-27T17:20:47.524Z,98948.66
2019-01-27T17:23:16.252Z,98954.48
2019-01-27T17:25:45.442Z,98952.86
2019-01-27T17:28:14.162Z,98955.34
2019-01-27T17:30:42.887Z,98950.98
2019-01-27T17:33:11.656Z,98954.44
2019-01-27T17:35:40.393Z,98957.00
2019-01-27T17:38:09.115Z,98953.62
2019-01-27T17:40:38.389Z,98951.11
2019-01-27T17:43:07.215Z,98953.19
2019-01-27T17:45:35.940Z,98956.69
2019-01-27T17:48:06.107Z,98961.34
2019-01-27T17:50:34.836Z,98964.55
2019-01-27T17:53:03.564Z,98961.83
2019-01-27T17:55:42.739Z,98965.00
2019-01-27T17:58:24.411Z,98957.27
2019-01-27T18:01:11.742Z,98961.73
2019-01-27T18:03:44.768Z,98968.35
2019-01-27T18:06:18.507Z,98967.92
2019-01-27T18:08:48.803Z,98967.20
2019-01-27T18:11:21.914Z,98968.31
2019-01-27T18:13:51.716Z,98965.27
2019-01-27T18:16:20.450Z,98966.38
2019-01-27T18:18:49.487Z,98970.84
2019-01-27T18:21:18.939Z,98971.92
2019-01-27T18:23:47.660Z,98971.16
2019-01-27T18:26:17.484Z,98975.05
2019-01-27T18:28:46.462Z,98975.05
2019-01-27T18:31:15.186Z,98972.23
2019-01-27T18:33:43.926Z,98972.73
2019-01-27T18:36:12.791Z,98978.70
2019-01-27T18:38:41.515Z,98985.16
2019-01-27T18:41:10.249Z,98985.94
2019-01-27T18:43:39.137Z,98989.58
2019-01-27T18:46:07.869Z,98983.39
2019-01-27T18:48:36.606Z,98978.45
2019-01-27T18:51:06.318Z,98980.78
2019-01-27T18:53:54.744Z,98982.58
2019-01-27T18:56:35.652Z,98980.77
2019-01-27T18:59:08.691Z,98983.38
2019-01-27T19:01:39.095Z,98984.65
2019-01-27T19:04:09.522Z,98978.70
2019-01-27T19:06:42.765Z,98974.05
2019-01-27T19:09:22.366Z,98975.86
2019-01-27T19:11:55.694Z,98981.81
2019-01-27T19:14:26.007Z,98978.20
2019-01-27T19:16:59.606Z,98980.27
2019-01-27T19:19:32.875Z,98974.05
2019-01-27T19:22:03.185Z,98970.17
2019-01-27T19:24:33.627Z,98976.63
2019-01-27T19:27:20.351Z,98978.67
2019-01-27T19:29:53.729Z,98973.50
2019-01-27T19:32:24.031Z,98977.63
2019-01-27T19:34:57.416Z,98978.14
2019-01-27T19:37:28.182Z,98978.91
2019-01-27T19:40:04.493Z,98975.02
2019-01-27T19:42:37.685Z,98972.97
2019-01-27T19:45:20.189Z,98975.55
2019-01-27T19:47:56.837Z,98978.35
2019-01-27T19:50:36.415Z,98988.44
2019-01-27T19:53:07.472Z,98980.17
2019-01-27T19:55:47.527Z,98978.36
2019-01-27T19:58:29.941Z,98975.27
2019-01-27T20:01:02.988Z,98975.01
2019-01-27T20:03:39.702Z,98979.65
2019-01-27T20:06:10.003Z,98979.14
2019-01-27T20:08:55.452Z,98984.81
2019-01-27T20:11:43.909Z,98985.34
2019-01-27T20:14:14.334Z,98988.44
2019-01-27T20:16:50.438Z,98990.74
2019-01-27T20:19:20.915Z,98991.52
2019-01-27T20:21:53.653Z,98994.59
2019-01-27T20:24:29.599Z,98992.54
2019-01-27T20:27:02.763Z,98993.80
2019-01-27T20:29:49.522Z,98995.05
2019-01-27T20:32:31.841Z,98991.66
2019-01-27T20:35:18.626Z,98990.37
2019-01-27T20:38:05.069Z,98986.20
2019-01-27T20:40:41.636Z,98985.19
2019-01-27T20:43:14.750Z,98991.14
2019-01-27T20:45:45.087Z,98986.76
2019-01-27T20:48:31.554Z,98988.83
2019-01-27T20:51:13.992Z,98980.83
2019-01-27T20:53:53.387Z,98980.28
2019-01-27T20:56:29.899Z,98994.39
2019-01-27T20:59:03.296Z,99002.37
2019-01-27T21:01:42.676Z,98990.25
2019-01-27T21:04:15.722Z,98971.94
2019-01-27T21:06:46.024Z,98968.08
2019-01-27T21:09:31.412Z,98973.27
2019-01-27T21:12:01.721Z,98971.69
2019-01-27T21:14:32.014Z,98977.31
2019-01-27T21:17:05.578Z,98970.37
2019-01-27T21:19:35.875Z,98969.31
2019-01-27T21:22:04.703Z,98967.19
2019-01-27T21:24:33.667Z,98965.61
2019-01-27T21:27:06.488Z,98965.31
2019-01-27T21:29:32.837Z,98964.80
2019-01-27T21:32:02.077Z,98966.86
2019-01-27T21:34:30.815Z,98973.27
2019-01-27T21:36:59.542Z,98970.16
2019-01-27T21:39:28.425Z,98970.14
2019-01-27T21:41:57.293Z,98961.11
2019-01-27T21:44:26.024Z,98952.45
2019-01-27T21:46:54.794Z,98949.30
2019-01-27T21:49:23.523Z,98951.53
2019-01-27T21:51:52.256Z,98956.91
2019-01-27T21:54:21.376Z,98955.55
2019-01-27T21:56:50.106Z,98953.14
2019-01-27T21:59:18.831Z,98960.75
2019-01-27T22:01:47.625Z,98964.23
2019-01-27T22:04:16.350Z,98969.11
2019-01-27T22:06:45.071Z,98979.05
2019-01-27T22:09:13.961Z,98969.19
2019-01-27T22:11:42.691Z,98954.63
2019-01-27T22:14:11.465Z,98964.23
2019-01-27T22:16:41.336Z,98967.52
2019-01-27T22:19:10.055Z,98967.61
2019-01-27T22:21:38.775Z,98971.89
2019-01-27T22:24:07.608Z,98974.25
2019-01-27T22:26:36.322Z,98966.19
2019-01-27T22:29:05.136Z,98954.81
2019-01-27T22:31:33.895Z,98950.79
2019-01-27T22:34:02.618Z,98950.70
2019-01-27T22:36:37.152Z,98952.73
2019-01-27T22:39:08.415Z,98952.53
2019-01-27T22:41:37.134Z,98954.77
2019-01-27T22:44:06.107Z,98953.23
2019-01-27T22:46:34.877Z,98954.05
2019-01-27T22:49:03.691Z,98945.46
2019-01-27T22:51:32.433Z,98932.33
2019-01-27T22:54:01.314Z,98928.44
2019-01-27T22:56:30.045Z,98928.70
2019-01-27T22:58:58.770Z,98928.38
2019-01-27T23:01:27.929Z,98931.55
2019-01-27T23:03:56.652Z,98929.72
2019-01-27T23:06:25.379Z,98925.98
2019-01-27T23:08:54.144Z,98922.97
2019-01-27T23:11:22.876Z,98912.09
2019-01-27T23:13:51.597Z,98908.97
2019-01-27T23:16:20.802Z,98902.77
2019-01-27T23:18:49.529Z,98907.84
2019-01-27T23:21:18.264Z,98901.64
2019-01-27T23:23:47.065Z,98902.93
2019-01-27T23:26:15.796Z,98910.89
2019-01-27T23:28:44.525Z,98921.45
2019-01-27T23:31:13.415Z,98927.69
2019-01-27T23:33:42.152Z,98928.33
2019-01-27T23:36:10.878Z,98938.08
2019-01-27T23:38:39.679Z,98940.56
2019-01-27T23:41:08.400Z,98939.98
2019-01-27T23:43:37.131Z,98946.58
2019-01-27T23:46:06.353Z,98950.04
2019-01-27T23:48:35.084Z,98956.36
2019-01-27T23:51:03.811Z,98956.42
2019-01-27T23:53:32.768Z,98962.08
2019-01-27T23:56:01.494Z,98958.76
2019-01-27T23:58:30.242Z,98955.21
